Time;durP1;ratioP1;P1;durP2;ratioP2;P2;SDS_P1;SDS_P2;PMS_P1;PMS_P2;Temp;Humidity;BMP_temperature;BMP_pressure;BME280_temperature;BME280_humidity;BME280_pressure;Samples;Min_cycle;Max_cycle;Signal;HPM_P1;HPM_P2
2023/01/21 00:00:38;;;;;;;55.78;32.45;;;-1.10;99.90;;;;;;5082061;28;20758;-59
2023/01/21 00:03:05;;;;;;;56.88;31.77;;;-1.10;99.90;;;;;;5078443;28;20933;-58
2023/01/21 00:05:31;;;;;;;57.60;32.08;;;-1.20;99.90;;;;;;5078558;28;20976;-60
2023/01/21 00:07:58;;;;;;;54.67;31.35;;;-1.10;99.90;;;;;;5079232;28;20988;-62
2023/01/21 00:10:25;;;;;;;55.10;32.50;;;-1.10;99.90;;;;;;5077905;28;20415;-62
2023/01/21 00:12:51;;;;;;;61.88;34.90;;;-1.20;99.90;;;;;;5077580;28;20529;-61
2023/01/21 00:15:18;;;;;;;59.10;33.17;;;-1.30;99.90;;;;;;5078823;28;20510;-60
2023/01/21 00:17:46;;;;;;;52.35;31.38;;;-1.10;99.90;;;;;;5075250;28;20410;-58
2023/01/21 00:20:13;;;;;;;60.53;34.65;;;-1.30;99.90;;;;;;5081678;28;20470;-58
2023/01/21 00:22:39;;;;;;;59.30;33.17;;;-1.30;99.90;;;;;;5079769;28;20478;-60
2023/01/21 00:25:07;;;;;;;56.08;32.60;;;-1.30;99.90;;;;;;5079835;28;20461;-58
2023/01/21 00:27:34;;;;;;;59.55;34.08;;;-1.20;99.90;;;;;;5075558;28;20431;-59
2023/01/21 00:30:00;;;;;;;58.38;32.75;;;-1.30;99.90;;;;;;5080246;28;20419;-61
2023/01/21 00:32:27;;;;;;;61.20;33.95;;;-1.20;99.90;;;;;;5080761;28;20460;-62
2023/01/21 00:34:55;;;;;;;58.25;33.20;;;-1.40;99.90;;;;;;5077028;28;20418;-62
2023/01/21 00:37:23;;;;;;;60.58;33.97;;;-1.40;99.90;;;;;;5075907;28;20407;-60
2023/01/21 00:39:50;;;;;;;63.73;34.13;;;-1.40;99.90;;;;;;5073630;28;20411;-58
2023/01/21 00:42:17;;;;;;;63.33;35.65;;;-1.40;99.90;;;;;;5076995;28;20480;-62
2023/01/21 00:44:44;;;;;;;66.53;36.97;;;-1.40;99.90;;;;;;5076569;28;20416;-60
2023/01/21 00:47:10;;;;;;;72.20;37.28;;;-1.60;99.90;;;;;;5079917;28;20454;-59
2023/01/21 00:49:37;;;;;;;65.68;35.78;;;-1.70;99.90;;;;;;5081544;28;20455;-62
2023/01/21 00:52:05;;;;;;;63.57;35.03;;;-1.60;99.90;;;;;;5079234;28;20468;-60
2023/01/21 00:54:32;;;;;;;58.55;34.67;;;-1.50;99.90;;;;;;5079440;28;20813;-60
2023/01/21 00:56:59;;;;;;;57.33;33.28;;;-1.40;99.90;;;;;;5081137;28;20414;-60
2023/01/21 00:59:26;;;;;;;63.95;33.92;;;-1.40;99.90;;;;;;5080053;28;20457;-61
2023/01/21 01:01:52;;;;;;;73.57;37.38;;;-1.70;99.90;;;;;;5078528;28;20494;-60
2023/01/21 01:04:19;;;;;;;74.33;38.33;;;-1.80;99.90;;;;;;5078105;28;20849;-62
2023/01/21 01:06:46;;;;;;;79.30;39.00;;;-1.90;99.90;;;;;;5074750;28;20427;-59
2023/01/21 01:09:14;;;;;;;76.85;39.30;;;-1.90;99.90;;;;;;5078615;28;20501;-60
2023/01/21 01:11:41;;;;;;;82.82;40.65;;;-2.00;99.90;;;;;;5075013;28;20477;-62
2023/01/21 01:14:08;;;;;;;90.10;42.97;;;-2.10;99.90;;;;;;5077902;28;20410;-60
2023/01/21 01:16:35;;;;;;;83.50;40.75;;;-2.10;99.90;;;;;;5079071;28;20415;-60
2023/01/21 01:19:01;;;;;;;92.47;42.25;;;-2.10;99.90;;;;;;5078780;28;20810;-61
2023/01/21 01:21:28;;;;;;;94.28;44.13;;;-2.20;99.90;;;;;;5080567;28;20776;-60
2023/01/21 01:23:59;;;;;;;98.27;41.67;;;-2.20;99.90;;;;;;5080027;28;20423;-60
2023/01/21 01:26:27;;;;;;;92.75;43.20;;;-2.20;99.90;;;;;;5078659;28;20447;-60
2023/01/21 01:28:54;;;;;;;89.80;41.47;;;-2.20;99.90;;;;;;5079647;28;20418;-61
2023/01/21 01:31:21;;;;;;;85.65;39.92;;;-2.20;99.90;;;;;;5080935;28;20893;-60
2023/01/21 01:33:48;;;;;;;92.30;42.03;;;-2.10;99.90;;;;;;5076773;28;20460;-61
2023/01/21 01:36:17;;;;;;;88.75;41.42;;;-2.20;99.90;;;;;;5076061;28;20468;-57
2023/01/21 01:38:44;;;;;;;92.70;40.78;;;-2.20;99.90;;;;;;5073040;28;20751;-60
2023/01/21 01:41:15;;;;;;;85.67;41.53;;;-2.20;99.90;;;;;;5076709;28;20408;-59
2023/01/21 01:43:53;;;;;;;89.10;41.60;;;-2.20;99.90;;;;;;5072564;28;20443;-57
2023/01/21 01:46:20;;;;;;;91.57;41.97;;;-2.20;99.90;;;;;;5080800;28;20419;-59
2023/01/21 01:48:48;;;;;;;84.50;40.22;;;-2.20;99.90;;;;;;5083559;28;20904;-60
2023/01/21 01:51:19;;;;;;;90.63;41.85;;;-2.20;99.90;;;;;;5084498;28;20857;-59
2023/01/21 01:53:47;;;;;;;86.50;40.33;;;-2.20;99.90;;;;;;5082717;28;20407;-59
2023/01/21 01:56:15;;;;;;;87.43;41.63;;;-2.20;99.90;;;;;;5082383;28;20468;-60
2023/01/21 01:58:43;;;;;;;86.32;41.13;;;-2.30;99.90;;;;;;5084102;28;20410;-60
2023/01/21 02:01:11;;;;;;;91.28;41.75;;;-2.30;99.90;;;;;;5083387;28;20410;-60
2023/01/21 02:03:45;;;;;;;96.60;43.22;;;-2.30;99.90;;;;;;5075707;28;20465;-59
2023/01/21 02:06:13;;;;;;;89.38;42.50;;;-2.30;99.90;;;;;;5078533;28;20419;-58
2023/01/21 02:08:39;;;;;;;90.20;42.40;;;-2.30;99.90;;;;;;5081616;28;20533;-58
2023/01/21 02:11:13;;;;;;;86.30;41.25;;;-2.30;99.90;;;;;;5081100;28;20409;-61
2023/01/21 02:13:42;;;;;;;82.72;40.42;;;-2.30;99.90;;;;;;5078699;28;20408;-61
2023/01/21 02:16:27;;;;;;;84.97;41.03;;;-2.30;99.90;;;;;;5081871;28;20415;-61
2023/01/21 02:19:03;;;;;;;89.63;42.67;;;-2.30;99.90;;;;;;5083513;28;20467;-59
2023/01/21 02:21:56;;;;;;;94.65;42.60;;;-2.40;99.90;;;;;;5083283;28;20410;-61
2023/01/21 02:24:58;;;;;;;85.65;40.75;;;-2.30;99.90;;;;;;5079000;28;20418;-58
2023/01/21 02:27:46;;;;;;;88.35;42.50;;;-2.30;99.90;;;;;;5081195;28;20413;-58
2023/01/21 02:30:34;;;;;;;79.32;40.47;;;-2.30;99.90;;;;;;5080357;28;20410;-60
2023/01/21 02:33:16;;;;;;;87.38;41.90;;;-2.20;99.90;;;;;;5081305;28;20413;-56
2023/01/21 02:35:51;;;;;;;79.15;40.03;;;-2.30;99.90;;;;;;5081293;28;20402;-59
2023/01/21 02:38:26;;;;;;;78.25;39.10;;;-2.20;99.90;;;;;;5080452;28;20900;-57
2023/01/21 02:41:07;;;;;;;84.38;41.10;;;-2.20;99.90;;;;;;5077814;28;20408;-55
2023/01/21 02:43:43;;;;;;;88.38;41.65;;;-2.30;99.90;;;;;;5078650;28;20411;-61
2023/01/21 02:46:16;;;;;;;83.85;41.58;;;-2.30;99.90;;;;;;5079847;28;20837;-59
2023/01/21 02:48:50;;;;;;;83.18;40.92;;;-2.20;99.90;;;;;;5081282;28;20447;-58
2023/01/21 02:51:19;;;;;;;87.63;41.60;;;-2.20;99.90;;;;;;5078793;28;20948;-60
2023/01/21 02:53:45;;;;;;;80.47;39.80;;;-2.30;99.90;;;;;;5081415;28;20499;-57
2023/01/21 02:56:14;;;;;;;76.28;39.35;;;-2.20;99.90;;;;;;5076012;28;20481;-59
2023/01/21 02:58:46;;;;;;;74.95;38.50;;;-2.20;99.90;;;;;;5079022;28;20461;-60
2023/01/21 03:01:26;;;;;;;69.63;37.63;;;-2.10;99.90;;;;;;5075799;28;20507;-61
2023/01/21 03:04:11;;;;;;;65.47;36.58;;;-2.00;99.90;;;;;;5077854;28;20490;-58
2023/01/21 03:06:52;;;;;;;69.95;37.30;;;-2.10;99.90;;;;;;5074629;28;20412;-58
2023/01/21 03:09:22;;;;;;;63.90;34.83;;;-1.90;99.90;;;;;;5080123;28;20435;-62
2023/01/21 03:12:02;;;;;;;63.22;36.15;;;-1.80;99.90;;;;;;5081514;28;20412;-57
2023/01/21 03:17:35;;;;;;;63.80;33.97;;;-1.80;99.90;;;;;;5040130;28;20431;-56
2023/01/21 03:20:08;;;;;;;69.35;36.72;;;-1.90;99.90;;;;;;5083051;28;20427;-61
2023/01/21 03:22:37;;;;;;;61.08;34.85;;;-1.90;99.90;;;;;;5078837;28;20478;-61
2023/01/21 03:25:07;;;;;;;63.27;33.93;;;-1.80;99.90;;;;;;5078112;28;20897;-61
2023/01/21 03:27:35;;;;;;;66.00;35.42;;;-1.80;99.90;;;;;;5079233;28;20462;-58
2023/01/21 03:30:08;;;;;;;60.33;34.17;;;-1.90;99.90;;;;;;5080149;28;21064;-59
2023/01/21 03:32:36;;;;;;;65.55;36.35;;;-1.90;99.90;;;;;;5079257;28;20477;-60
2023/01/21 03:35:06;;;;;;;63.58;35.30;;;-2.00;99.90;;;;;;5077904;28;20465;-60
2023/01/21 03:37:39;;;;;;;68.85;35.72;;;-2.00;99.90;;;;;;5080290;28;20415;-61
2023/01/21 03:40:14;;;;;;;60.92;34.47;;;-2.00;99.90;;;;;;5080227;28;20437;-58
2023/01/21 03:42:42;;;;;;;59.40;34.30;;;-1.90;99.90;;;;;;5084106;28;20410;-60
2023/01/21 03:45:10;;;;;;;61.13;33.50;;;-1.80;99.90;;;;;;5075108;28;20418;-58
2023/01/21 03:47:38;;;;;;;57.00;33.47;;;-1.80;99.90;;;;;;5079743;28;20505;-59
2023/01/21 03:50:10;;;;;;;55.63;32.30;;;-1.80;99.90;;;;;;5079732;28;20477;-61
2023/01/21 03:52:41;;;;;;;56.38;33.47;;;-1.70;99.90;;;;;;5080446;28;20522;-58
2023/01/21 03:55:09;;;;;;;55.30;32.50;;;-1.70;99.90;;;;;;5076633;28;20423;-60
2023/01/21 03:57:36;;;;;;;53.42;32.08;;;-1.70;99.90;;;;;;5080418;28;20473;-60
2023/01/21 04:00:03;;;;;;;56.67;33.03;;;-1.60;99.90;;;;;;5082184;28;20410;-59
2023/01/21 04:02:30;;;;;;;63.95;35.05;;;-1.70;99.90;;;;;;5080872;28;20447;-61
2023/01/21 04:04:56;;;;;;;61.17;34.50;;;-1.80;99.90;;;;;;5079769;28;20829;-61
2023/01/21 04:07:25;;;;;;;60.67;32.80;;;-1.90;99.90;;;;;;5078750;28;20773;-59
2023/01/21 04:09:51;;;;;;;56.30;31.80;;;-1.80;99.90;;;;;;5078647;28;20479;-59
2023/01/21 04:12:18;;;;;;;54.60;32.58;;;-1.70;99.90;;;;;;5077107;28;20473;-61
2023/01/21 04:14:45;;;;;;;52.60;31.92;;;-1.60;99.90;;;;;;5077159;28;20416;-61
2023/01/21 04:17:11;;;;;;;56.58;32.05;;;-1.60;99.90;;;;;;5076755;28;20411;-58
2023/01/21 04:19:38;;;;;;;60.03;34.20;;;-1.80;99.90;;;;;;5081330;28;20811;-60
2023/01/21 04:22:05;;;;;;;65.25;34.90;;;-2.00;99.90;;;;;;5081084;28;20414;-62
2023/01/21 04:24:33;;;;;;;68.07;36.08;;;-2.10;99.90;;;;;;5079353;28;20504;-61
2023/01/21 04:26:59;;;;;;;75.93;39.05;;;-2.30;99.90;;;;;;5080189;28;20418;-58
2023/01/21 04:29:26;;;;;;;81.70;41.28;;;-2.40;99.90;;;;;;5081337;28;20470;-61
2023/01/21 04:31:53;;;;;;;81.50;39.63;;;-2.60;99.90;;;;;;5079998;28;20462;-59
2023/01/21 04:34:19;;;;;;;63.42;35.03;;;-2.50;99.90;;;;;;5079680;28;20423;-57
2023/01/21 04:36:46;;;;;;;63.10;34.58;;;-2.30;99.90;;;;;;5079260;28;20950;-61
2023/01/21 04:39:13;;;;;;;62.25;34.22;;;-2.20;99.90;;;;;;5077911;28;20423;-59
2023/01/21 04:41:41;;;;;;;54.90;31.98;;;-2.10;99.90;;;;;;5076539;28;20486;-61
2023/01/21 04:44:08;;;;;;;54.97;32.40;;;-2.00;99.90;;;;;;5078319;28;20502;-59
2023/01/21 04:46:34;;;;;;;55.95;32.17;;;-2.10;99.90;;;;;;5075016;28;20472;-61
2023/01/21 04:49:01;;;;;;;57.25;32.67;;;-2.00;99.90;;;;;;5081547;28;20482;-61
2023/01/21 04:51:27;;;;;;;53.42;32.10;;;-2.00;99.90;;;;;;5084116;28;20420;-58
2023/01/21 04:53:54;;;;;;;56.05;32.10;;;-1.90;99.90;;;;;;5082851;28;20405;-58
2023/01/21 04:56:21;;;;;;;51.57;31.73;;;-1.90;99.90;;;;;;5079387;28;20844;-62
2023/01/21 04:58:49;;;;;;;51.90;30.95;;;-1.90;99.90;;;;;;5079355;28;20809;-61
2023/01/21 05:01:16;;;;;;;53.65;31.60;;;-1.90;99.90;;;;;;5075269;28;20883;-60
2023/01/21 05:03:43;;;;;;;48.60;29.52;;;-1.90;99.90;;;;;;5079708;28;20890;-59
2023/01/21 05:06:09;;;;;;;51.73;30.67;;;-1.90;99.90;;;;;;5079915;28;20440;-61
2023/01/21 05:08:36;;;;;;;53.53;30.50;;;-1.90;99.90;;;;;;5077208;28;20420;-62
2023/01/21 05:11:03;;;;;;;55.72;31.25;;;-1.90;99.90;;;;;;5076477;28;20497;-61
2023/01/21 05:13:29;;;;;;;56.28;32.38;;;-2.00;99.90;;;;;;5072884;28;20407;-57
2023/01/21 05:16:03;;;;;;;56.20;32.70;;;-2.00;99.90;;;;;;5075933;28;20422;-61
2023/01/21 05:18:29;;;;;;;59.05;32.72;;;-2.10;99.90;;;;;;5076420;28;20407;-60
2023/01/21 05:20:56;;;;;;;60.20;34.05;;;-2.10;99.90;;;;;;5083359;28;20411;-59
2023/01/21 05:23:23;;;;;;;54.97;32.47;;;-2.00;99.90;;;;;;5085179;28;20410;-59
2023/01/21 05:25:49;;;;;;;53.17;32.25;;;-2.00;99.90;;;;;;5083520;28;20415;-61
2023/01/21 05:28:16;;;;;;;56.83;32.60;;;-1.90;99.90;;;;;;5082934;28;20955;-61
2023/01/21 05:30:43;;;;;;;58.25;32.60;;;-1.90;99.90;;;;;;5078774;28;20955;-61
2023/01/21 05:33:11;;;;;;;58.17;33.97;;;-2.00;99.90;;;;;;5082629;28;20459;-62
2023/01/21 05:35:37;;;;;;;67.23;36.43;;;-2.10;99.90;;;;;;5082911;28;20495;-60
2023/01/21 05:38:04;;;;;;;63.33;36.35;;;-2.50;99.90;;;;;;5086310;28;20467;-57
2023/01/21 05:40:31;;;;;;;63.00;34.33;;;-2.40;99.90;;;;;;5082655;28;20458;-62
2023/01/21 05:42:57;;;;;;;61.93;34.63;;;-2.30;99.90;;;;;;5076237;28;21236;-60
2023/01/21 05:45:24;;;;;;;65.70;35.92;;;-2.30;99.90;;;;;;5080619;28;20441;-62
2023/01/21 05:47:51;;;;;;;60.65;34.97;;;-2.40;99.90;;;;;;5084651;28;20414;-58
2023/01/21 05:50:19;;;;;;;58.13;35.75;;;-2.30;99.90;;;;;;5083411;28;20423;-60
2023/01/21 05:52:46;;;;;;;57.03;33.78;;;-2.20;99.90;;;;;;5082164;28;20747;-62
2023/01/21 05:55:13;;;;;;;54.75;32.17;;;-2.10;99.90;;;;;;5084591;28;20754;-61
2023/01/21 05:57:39;;;;;;;58.58;33.08;;;-2.10;99.90;;;;;;5083786;28;20757;-60
2023/01/21 06:00:07;;;;;;;56.65;33.70;;;-2.20;99.90;;;;;;5082089;28;20412;-61
2023/01/21 06:02:34;;;;;;;59.47;34.00;;;-2.10;99.90;;;;;;5082595;28;20421;-59
2023/01/21 06:05:01;;;;;;;53.50;31.92;;;-2.00;99.90;;;;;;5081982;28;20555;-59
2023/01/21 06:07:29;;;;;;;52.28;30.50;;;-2.00;99.90;;;;;;5079494;28;20411;-57
2023/01/21 06:09:55;;;;;;;56.67;31.97;;;-1.90;99.90;;;;;;5079949;28;20423;-56
2023/01/21 06:12:22;;;;;;;54.35;31.52;;;-1.90;99.90;;;;;;5081681;28;20405;-57
2023/01/21 06:14:49;;;;;;;50.17;31.27;;;-1.90;99.90;;;;;;5080465;28;20524;-60
2023/01/21 06:17:15;;;;;;;51.53;30.02;;;-1.80;99.90;;;;;;5081605;28;20423;-62
2023/01/21 06:19:42;;;;;;;52.80;31.00;;;-1.80;99.90;;;;;;5083610;28;20410;-62
2023/01/21 06:22:13;;;;;;;52.60;30.45;;;-1.80;99.90;;;;;;5083571;28;20406;-60
2023/01/21 06:24:41;;;;;;;51.28;30.35;;;-1.80;99.90;;;;;;5078497;28;20403;-62
2023/01/21 06:27:08;;;;;;;49.33;30.38;;;-1.80;99.90;;;;;;5082137;28;20469;-62
2023/01/21 06:29:34;;;;;;;49.20;30.00;;;-1.80;99.90;;;;;;5083956;28;20444;-64
2023/01/21 06:32:01;;;;;;;47.97;29.48;;;-1.80;99.90;;;;;;5081681;28;20473;-61
2023/01/21 06:34:27;;;;;;;50.60;29.90;;;-1.90;99.90;;;;;;5079123;28;20904;-63
2023/01/21 06:36:54;;;;;;;51.80;30.00;;;-1.90;99.90;;;;;;5080748;28;20987;-63
2023/01/21 06:39:21;;;;;;;49.03;29.88;;;-2.00;99.90;;;;;;5080530;28;20406;-63
2023/01/21 06:41:49;;;;;;;51.67;30.98;;;-2.10;99.90;;;;;;5078653;28;20411;-62
2023/01/21 06:44:16;;;;;;;51.90;31.02;;;-2.10;99.90;;;;;;5079922;28;20420;-63
2023/01/21 06:46:42;;;;;;;54.40;32.38;;;-2.10;99.90;;;;;;5083463;28;20953;-63
2023/01/21 06:49:09;;;;;;;61.25;34.65;;;-2.30;99.90;;;;;;5081726;28;20510;-63
2023/01/21 06:51:36;;;;;;;77.13;39.95;;;-2.60;99.90;;;;;;5081474;28;20489;-61
2023/01/21 06:54:02;;;;;;;82.85;41.88;;;-2.90;99.90;;;;;;5083285;28;20459;-63
2023/01/21 06:56:29;;;;;;;91.80;43.58;;;-3.00;99.90;;;;;;5082173;28;20407;-63
2023/01/21 06:58:57;;;;;;;93.65;44.40;;;-3.20;99.90;;;;;;5081205;28;20411;-62
2023/01/21 07:01:24;;;;;;;102.13;46.25;;;-3.20;99.90;;;;;;5082721;28;20406;-63
2023/01/21 07:03:50;;;;;;;102.68;46.70;;;-3.30;99.90;;;;;;5080164;28;20413;-61
2023/01/21 07:06:17;;;;;;;106.88;47.97;;;-3.30;99.90;;;;;;5078295;28;20415;-66
2023/01/21 07:08:44;;;;;;;109.18;49.28;;;-3.30;99.90;;;;;;5079966;28;20410;-62
2023/01/21 07:11:10;;;;;;;111.65;49.72;;;-3.30;99.90;;;;;;5080747;28;20416;-64
2023/01/21 07:13:37;;;;;;;108.82;49.53;;;-3.30;99.90;;;;;;5079128;28;20415;-62
2023/01/21 07:16:06;;;;;;;111.18;49.70;;;-3.30;99.90;;;;;;5080964;28;20465;-65
2023/01/21 07:18:33;;;;;;;106.85;48.42;;;-3.20;99.90;;;;;;5081182;28;20801;-63
2023/01/21 07:21:00;;;;;;;111.00;50.00;;;-3.20;99.90;;;;;;5081687;28;20831;-63
2023/01/21 07:23:28;;;;;;;103.53;48.30;;;-3.10;99.90;;;;;;5082924;28;20438;-63
2023/01/21 07:25:55;;;;;;;108.55;48.72;;;-3.10;99.90;;;;;;5081589;28;20420;-64
2023/01/21 07:28:22;;;;;;;105.40;47.90;;;-3.00;99.90;;;;;;5080485;28;20833;-64
2023/01/21 07:30:49;;;;;;;99.70;46.78;;;-2.90;99.90;;;;;;5077149;28;20426;-62
2023/01/21 07:33:17;;;;;;;92.93;44.35;;;-2.90;99.90;;;;;;5081082;28;20833;-64
2023/01/21 07:35:43;;;;;;;88.65;44.80;;;-2.90;99.90;;;;;;5082969;28;20937;-62
2023/01/21 07:38:10;;;;;;;87.70;41.92;;;-2.80;99.90;;;;;;5080857;28;20890;-62
2023/01/21 07:40:37;;;;;;;84.33;43.03;;;-2.80;99.90;;;;;;5079801;28;20890;-62
2023/01/21 07:43:03;;;;;;;90.47;45.95;;;-2.90;99.90;;;;;;5081623;28;20414;-63
2023/01/21 07:45:30;;;;;;;90.45;44.75;;;-2.80;99.90;;;;;;5079274;28;20468;-63
2023/01/21 07:47:57;;;;;;;91.07;44.00;;;-2.90;99.90;;;;;;5082699;28;20418;-61
2023/01/21 07:50:26;;;;;;;93.57;45.25;;;-2.80;99.90;;;;;;5080711;28;20431;-63
2023/01/21 07:52:53;;;;;;;99.60;46.72;;;-2.80;99.90;;;;;;5080370;28;20517;-63
2023/01/21 07:55:20;;;;;;;99.15;47.75;;;-2.80;99.90;;;;;;5082304;28;20470;-63
2023/01/21 07:57:46;;;;;;;99.85;48.17;;;-2.80;99.90;;;;;;5081682;28;20908;-63
2023/01/21 08:00:14;;;;;;;99.75;47.90;;;-2.70;99.90;;;;;;5079236;28;20407;-62
2023/01/21 08:02:41;;;;;;;97.93;47.58;;;-2.70;99.90;;;;;;5080691;28;20497;-62
2023/01/21 08:05:09;;;;;;;94.65;44.45;;;-2.60;99.90;;;;;;5082186;28;20417;-63
2023/01/21 08:07:37;;;;;;;94.80;45.10;;;-2.60;99.90;;;;;;5080214;28;20419;-62
2023/01/21 08:10:04;;;;;;;89.78;43.17;;;-2.50;99.90;;;;;;5079875;28;20427;-64
2023/01/21 08:12:30;;;;;;;94.07;45.20;;;-2.40;99.90;;;;;;5076417;28;20407;-62
2023/01/21 08:14:57;;;;;;;98.05;47.13;;;-2.40;99.90;;;;;;5079149;28;20444;-64
2023/01/21 08:17:24;;;;;;;94.03;45.42;;;-2.30;99.90;;;;;;5079506;28;20419;-63
2023/01/21 08:19:50;;;;;;;92.65;42.95;;;-2.20;99.90;;;;;;5081926;28;20487;-63
2023/01/21 08:22:17;;;;;;;97.47;45.63;;;-2.20;99.90;;;;;;5079554;28;20457;-63
2023/01/21 08:24:45;;;;;;;95.35;47.03;;;-2.20;99.90;;;;;;5076023;28;20407;-63
2023/01/21 08:27:12;;;;;;;89.18;44.83;;;-2.20;99.90;;;;;;5080059;28;20436;-63
2023/01/21 08:29:38;;;;;;;78.95;39.38;;;-2.10;99.90;;;;;;5081879;28;20770;-63
2023/01/21 08:32:05;;;;;;;89.40;42.42;;;-2.10;99.90;;;;;;5080108;28;20439;-63
2023/01/21 08:34:32;;;;;;;81.45;40.58;;;-2.10;99.90;;;;;;5079109;28;20415;-63
2023/01/21 08:36:59;;;;;;;90.68;43.88;;;-2.00;99.90;;;;;;5075700;28;20494;-63
2023/01/21 08:39:25;;;;;;;82.10;42.67;;;-2.00;99.90;;;;;;5080008;28;20407;-64
2023/01/21 08:41:53;;;;;;;83.93;42.40;;;-1.90;99.90;;;;;;5081467;28;20471;-63
2023/01/21 08:44:20;;;;;;;75.72;41.00;;;-1.80;99.90;;;;;;5077905;28;20426;-64
2023/01/21 08:46:47;;;;;;;72.53;39.08;;;-1.70;99.90;;;;;;5081212;28;20426;-63
2023/01/21 08:49:13;;;;;;;74.00;39.63;;;-1.60;99.90;;;;;;5079335;28;20469;-64
2023/01/21 08:51:40;;;;;;;75.97;39.90;;;-1.70;99.90;;;;;;5079188;28;20419;-63
2023/01/21 08:54:07;;;;;;;66.93;36.78;;;-1.70;99.90;;;;;;5081453;28;20453;-63
2023/01/21 08:56:34;;;;;;;71.10;39.38;;;-1.70;99.90;;;;;;5080086;28;20465;-63
2023/01/21 08:59:02;;;;;;;70.00;39.60;;;-1.70;99.90;;;;;;5079070;28;20423;-63
2023/01/21 09:01:29;;;;;;;66.57;35.17;;;-1.60;99.90;;;;;;5080556;28;20410;-63
2023/01/21 09:03:56;;;;;;;68.07;38.08;;;-1.50;99.90;;;;;;5080807;28;20463;-63
2023/01/21 09:06:25;;;;;;;63.25;35.20;;;-1.50;99.90;;;;;;5073954;28;21285;-63
2023/01/21 09:08:52;;;;;;;65.53;36.22;;;-1.50;99.90;;;;;;5080103;28;20424;-63
2023/01/21 09:11:19;;;;;;;66.68;37.13;;;-1.40;99.90;;;;;;5081444;28;20467;-62
2023/01/21 09:13:46;;;;;;;64.38;35.28;;;-1.40;99.90;;;;;;5079586;28;20821;-63
2023/01/21 09:16:16;;;;;;;59.00;32.13;;;-1.40;99.90;;;;;;5078529;28;20416;-63
2023/01/21 09:18:43;;;;;;;62.10;34.83;;;-1.30;99.90;;;;;;5076067;28;20411;-63
2023/01/21 09:21:11;;;;;;;64.78;33.40;;;-1.30;99.90;;;;;;5079152;28;20407;-63
2023/01/21 09:23:39;;;;;;;62.63;35.63;;;-1.30;99.90;;;;;;5075619;28;20407;-63
2023/01/21 09:26:09;;;;;;;62.50;34.17;;;-1.30;99.90;;;;;;5079257;28;20439;-62
2023/01/21 09:28:38;;;;;;;62.53;34.67;;;-1.20;99.90;;;;;;5081147;28;20410;-63
2023/01/21 09:31:06;;;;;;;40.90;23.65;;;-1.10;99.90;;;;;;5080298;28;20429;-62
2023/01/21 09:33:38;;;;;;;58.78;32.58;;;-1.10;99.90;;;;;;5078784;28;20423;-64
2023/01/21 09:36:06;;;;;;;53.60;29.70;;;-1.10;99.90;;;;;;5078982;28;20423;-63
2023/01/21 09:38:34;;;;;;;59.50;32.83;;;-1.10;99.90;;;;;;5081159;28;20479;-64
2023/01/21 09:41:11;;;;;;;51.10;28.97;;;-1.00;99.90;;;;;;5079855;28;20422;-63
2023/01/21 09:43:42;;;;;;;57.42;32.03;;;-1.00;99.90;;;;;;5072169;28;20443;-62
2023/01/21 09:46:17;;;;;;;50.75;29.60;;;-0.90;99.90;;;;;;5078464;28;20427;-62
2023/01/21 09:48:48;;;;;;;58.15;32.53;;;-0.90;99.90;;;;;;5070732;28;20436;-62
2023/01/21 09:51:20;;;;;;;56.33;31.13;;;-0.80;99.90;;;;;;5078351;28;20422;-63
2023/01/21 09:53:50;;;;;;;55.17;31.67;;;-0.80;99.90;;;;;;5082700;28;20475;-63
2023/01/21 09:56:25;;;;;;;55.83;31.63;;;-0.70;99.90;;;;;;5074725;28;20786;-63
2023/01/21 09:59:00;;;;;;;49.23;27.80;;;-0.60;99.90;;;;;;5078688;28;21068;-62
2023/01/21 10:01:33;;;;;;;48.97;27.10;;;-0.60;99.90;;;;;;5079654;28;20465;-63
2023/01/21 10:04:07;;;;;;;55.30;31.42;;;-0.70;99.90;;;;;;5075249;28;20760;-63
2023/01/21 10:06:42;;;;;;;53.55;31.42;;;-0.70;99.90;;;;;;5083050;28;20413;-63
2023/01/21 10:09:35;;;;;;;53.47;31.77;;;-0.70;99.90;;;;;;5083937;28;20881;-63
2023/01/21 10:12:28;;;;;;;54.60;31.75;;;-0.60;99.90;;;;;;5083523;28;20425;-64
2023/01/21 10:15:29;;;;;;;51.50;29.20;;;-0.50;99.90;;;;;;5079954;28;20406;-61
2023/01/21 10:17:58;;;;;;;52.28;30.02;;;-0.50;99.90;;;;;;5084659;28;20876;-63
2023/01/21 10:20:30;;;;;;;51.08;29.30;;;-0.30;99.90;;;;;;5081233;28;20918;-61
2023/01/21 10:23:02;;;;;;;46.17;26.20;;;-0.30;99.90;;;;;;5081245;28;20422;-62
2023/01/21 10:25:31;;;;;;;50.92;30.15;;;-0.40;99.90;;;;;;5082035;28;20407;-63
2023/01/21 10:28:02;;;;;;;51.65;30.00;;;-0.30;99.90;;;;;;5084317;28;20409;-63
2023/01/21 10:30:35;;;;;;;54.90;31.92;;;-0.40;99.90;;;;;;5083763;28;20422;-64
2023/01/21 10:33:02;;;;;;;50.97;29.67;;;-0.20;99.90;;;;;;5078787;28;20494;-63
2023/01/21 10:35:46;;;;;;;56.05;32.03;;;-0.20;99.90;;;;;;5081581;28;20477;-62
2023/01/21 10:38:19;;;;;;;61.08;31.17;;;-0.30;99.90;;;;;;5082250;28;20405;-65
2023/01/21 10:40:55;;;;;;;57.65;31.80;;;-0.30;99.90;;;;;;5079530;28;20408;-64
2023/01/21 10:43:33;;;;;;;60.20;34.35;;;-0.30;99.90;;;;;;5081317;28;20491;-62
2023/01/21 10:46:10;;;;;;;57.88;32.30;;;-0.30;99.90;;;;;;5080841;28;20410;-63
2023/01/21 10:48:44;;;;;;;62.88;33.95;;;-0.20;99.90;;;;;;5081913;28;20439;-63
2023/01/21 10:51:18;;;;;;;56.33;31.63;;;-0.10;99.90;;;;;;5079232;28;20431;-63
2023/01/21 10:53:51;;;;;;;57.50;32.15;;;-0.10;99.90;;;;;;5081246;28;20481;-63
2023/01/21 10:56:28;;;;;;;56.83;31.27;;;0.00;99.90;;;;;;5081590;28;20440;-63
2023/01/21 10:58:58;;;;;;;55.77;30.97;;;0.30;99.90;;;;;;5079683;28;20490;-63
2023/01/21 11:01:29;;;;;;;55.97;30.48;;;0.20;99.90;;;;;;5080922;28;20407;-63
2023/01/21 11:03:59;;;;;;;53.22;29.60;;;0.20;99.90;;;;;;5081399;28;20413;-63
2023/01/21 11:06:31;;;;;;;55.58;30.52;;;0.20;99.90;;;;;;5083315;28;20413;-63
2023/01/21 11:09:01;;;;;;;53.73;30.33;;;0.20;99.90;;;;;;5082706;28;20414;-63
2023/01/21 11:11:31;;;;;;;53.10;29.58;;;0.30;99.90;;;;;;5080932;28;20858;-61
2023/01/21 11:13:58;;;;;;;53.95;30.25;;;0.40;99.90;;;;;;5081655;28;20473;-62
2023/01/21 11:16:37;;;;;;;57.63;31.73;;;0.50;99.90;;;;;;5081839;28;20419;-63
2023/01/21 11:19:05;;;;;;;56.95;29.55;;;0.70;99.90;;;;;;5080284;28;20414;-62
2023/01/21 11:21:33;;;;;;;56.38;30.70;;;0.60;99.90;;;;;;5082360;28;20406;-62
2023/01/21 11:24:02;;;;;;;57.22;30.88;;;0.60;99.90;;;;;;5083145;28;20754;-62
2023/01/21 11:26:31;;;;;;;58.15;31.48;;;0.70;99.90;;;;;;5079908;28;20428;-62
2023/01/21 11:29:11;;;;;;;53.58;28.85;;;0.80;99.90;;;;;;5083038;28;20410;-61
2023/01/21 11:31:40;;;;;;;58.22;30.83;;;0.80;99.90;;;;;;5080203;28;20467;-61
2023/01/21 11:34:11;;;;;;;60.42;30.95;;;0.70;99.90;;;;;;5080752;28;20419;-63
2023/01/21 11:36:57;;;;;;;60.17;30.80;;;0.60;99.90;;;;;;5080674;28;20411;-63
2023/01/21 11:39:24;;;;;;;59.80;31.92;;;0.60;99.90;;;;;;5081435;28;20505;-63
2023/01/21 11:41:52;;;;;;;57.22;29.63;;;0.60;99.90;;;;;;5076691;28;20894;-63
2023/01/21 11:44:21;;;;;;;56.85;30.08;;;0.80;99.90;;;;;;5080622;28;20499;-63
2023/01/21 11:46:47;;;;;;;56.88;29.10;;;0.60;99.90;;;;;;5082581;28;20414;-62
2023/01/21 11:49:26;;;;;;;56.45;28.17;;;0.50;99.90;;;;;;5081305;28;20457;-63
2023/01/21 11:52:14;;;;;;;57.58;29.38;;;0.40;99.90;;;;;;5076965;28;20419;-62
2023/01/21 11:54:42;;;;;;;66.97;32.10;;;0.40;99.90;;;;;;5079113;28;20494;-62
2023/01/21 11:57:29;;;;;;;61.58;31.20;;;0.40;99.90;;;;;;5080072;28;20412;-62
2023/01/21 12:00:04;;;;;;;56.20;30.23;;;0.50;99.90;;;;;;5079826;28;20484;-62
2023/01/21 12:02:34;;;;;;;56.90;28.60;;;0.50;99.90;;;;;;5080220;28;20580;-62
2023/01/21 12:05:04;;;;;;;56.27;27.70;;;0.50;99.90;;;;;;5078115;28;20484;-63
2023/01/21 12:07:35;;;;;;;54.33;28.37;;;0.40;99.90;;;;;;5084375;28;20441;-63
2023/01/21 12:10:08;;;;;;;55.63;27.88;;;0.50;99.90;;;;;;5077853;28;20408;-63
2023/01/21 12:12:52;;;;;;;54.83;28.73;;;0.50;99.90;;;;;;5079598;28;20457;-62
2023/01/21 12:15:31;;;;;;;50.80;26.77;;;0.60;99.90;;;;;;5079380;28;20447;-62
2023/01/21 12:18:06;;;;;;;47.45;24.95;;;0.60;99.90;;;;;;5079438;28;20414;-62
2023/01/21 12:20:40;;;;;;;46.05;24.33;;;0.50;99.90;;;;;;5081249;28;20414;-63
2023/01/21 12:23:36;;;;;;;45.57;24.03;;;0.50;99.90;;;;;;5074694;28;20403;-62
2023/01/21 12:26:13;;;;;;;46.10;25.25;;;0.40;99.90;;;;;;5076577;28;20910;-64
2023/01/21 12:28:57;;;;;;;42.60;22.67;;;0.50;99.90;;;;;;5078314;28;20416;-62
2023/01/21 12:31:31;;;;;;;46.72;24.08;;;0.50;99.90;;;;;;5077991;28;20472;-62
2023/01/21 12:34:04;;;;;;;49.65;25.65;;;0.60;99.90;;;;;;5075573;28;20455;-62
2023/01/21 12:36:35;;;;;;;50.35;26.55;;;0.70;99.90;;;;;;5082756;28;20956;-62
2023/01/21 12:39:17;;;;;;;53.25;25.88;;;0.70;99.90;;;;;;5077370;28;20420;-63
2023/01/21 12:41:48;;;;;;;42.78;21.35;;;0.70;99.90;;;;;;5076947;28;20465;-62
2023/01/21 12:44:22;;;;;;;45.17;23.67;;;0.70;99.90;;;;;;5078462;28;20407;-63